Time;durP1;ratioP1;P1;durP2;ratioP2;P2;SDS_P1;SDS_P2;PMS_P1;PMS_P2;Temp;Humidity;BMP_temperature;BMP_pressure;BME280_temperature;BME280_humidity;BME280_pressure;Samples;Min_cycle;Max_cycle;Signal;HPM_P1;HPM_P2
2021/07/15 00:00:21;;;;;;;4.87;1.43;;;20.20;99.90;;;;;;5024021;28;20952;-85
2021/07/15 00:02:49;;;;;;;1.60;1.50;;;20.10;99.90;;;;;;5033008;28;20456;-85
2021/07/15 00:05:17;;;;;;;1.50;1.33;;;20.00;99.90;;;;;;5022916;28;20486;-86
2021/07/15 00:07:45;;;;;;;2.97;1.80;;;19.90;99.90;;;;;;5026806;28;20930;-86
2021/07/15 00:10:50;;;;;;;5.73;1.77;;;19.90;99.90;;;;;;5022885;28;20470;-85
2021/07/15 00:13:18;;;;;;;3.20;1.00;;;19.80;99.90;;;;;;5030837;28;20562;-85
2021/07/15 00:15:55;;;;;;;2.30;1.70;;;19.90;99.90;;;;;;5025161;28;20513;-85
2021/07/15 00:28:01;;;;;;;1.30;0.90;;;19.70;99.90;;;;;;5021346;28;20449;-85
2021/07/15 00:30:33;;;;;;;1.80;1.47;;;19.70;99.90;;;;;;5029868;28;20626;-85
2021/07/15 00:33:01;;;;;;;2.70;2.30;;;19.70;99.90;;;;;;5025083;28;20445;-85
2021/07/15 00:35:29;;;;;;;3.10;1.67;;;19.70;99.90;;;;;;5033462;28;20486;-85
2021/07/15 00:40:50;;;;;;;2.00;1.60;;;19.80;99.90;;;;;;5007179;28;20456;-86
2021/07/15 00:44:27;;;;;;;2.83;1.07;;;19.70;99.90;;;;;;5023775;28;20447;-85
2021/07/15 00:47:13;;;;;;;4.80;1.57;;;19.70;99.90;;;;;;5013461;28;20461;-85
2021/07/15 00:49:40;;;;;;;5.03;1.40;;;19.60;99.90;;;;;;5025039;28;20942;-85
2021/07/15 00:52:11;;;;;;;2.93;1.50;;;19.60;99.90;;;;;;5028513;28;20972;-87
2021/07/15 00:54:40;;;;;;;1.97;1.20;;;19.60;99.90;;;;;;5032760;28;20476;-85
2021/07/15 00:57:11;;;;;;;2.37;1.10;;;19.60;99.90;;;;;;5034534;28;20462;-86
2021/07/15 00:59:39;;;;;;;2.90;1.40;;;19.50;99.90;;;;;;5027487;28;20460;-85
2021/07/15 01:02:06;;;;;;;2.33;1.40;;;19.40;99.90;;;;;;5025109;28;20459;-85
2021/07/15 01:04:33;;;;;;;2.40;1.30;;;19.30;99.90;;;;;;5026026;28;20467;-85
2021/07/15 01:07:01;;;;;;;2.03;1.20;;;19.30;99.90;;;;;;5026404;28;20462;-85
2021/07/15 01:09:29;;;;;;;2.50;1.00;;;19.30;99.90;;;;;;5033148;28;20528;-85
2021/07/15 01:12:08;;;;;;;1.43;1.30;;;19.30;99.90;;;;;;5020553;28;20460;-86
2021/07/15 01:14:55;;;;;;;4.57;1.80;;;19.20;99.90;;;;;;5028638;28;20471;-85
2021/07/15 01:17:26;;;;;;;6.37;2.13;;;19.20;99.90;;;;;;5024837;28;20442;-85
2021/07/15 01:20:12;;;;;;;3.30;1.40;;;19.20;99.90;;;;;;5040106;28;20453;-85
2021/07/15 01:22:44;;;;;;;5.73;1.50;;;19.20;99.90;;;;;;5014753;28;20863;-85
2021/07/15 01:25:49;;;;;;;4.93;1.50;;;19.30;99.90;;;;;;5028678;28;20487;-85
2021/07/15 01:28:22;;;;;;;4.40;1.40;;;19.20;99.90;;;;;;5027933;28;20447;-84
2021/07/15 01:30:53;;;;;;;5.53;2.13;;;19.20;99.90;;;;;;5034360;28;20450;-84
2021/07/15 01:33:22;;;;;;;2.23;1.60;;;19.20;99.90;;;;;;5025605;28;20439;-85
2021/07/15 01:35:52;;;;;;;2.80;1.60;;;19.20;99.90;;;;;;5029129;28;20468;-85
2021/07/15 01:38:23;;;;;;;2.73;1.80;;;19.20;99.90;;;;;;5022673;28;20654;-86
2021/07/15 01:40:56;;;;;;;2.80;1.70;;;19.20;99.90;;;;;;5036479;28;20443;-84
2021/07/15 01:43:30;;;;;;;4.73;1.90;;;19.10;99.90;;;;;;5024744;28;20447;-84
2021/07/15 01:45:59;;;;;;;1.57;1.47;;;19.10;99.90;;;;;;5038261;28;20486;-84
2021/07/15 01:48:26;;;;;;;4.67;1.77;;;19.10;99.90;;;;;;5035442;28;20471;-85
2021/07/15 01:50:54;;;;;;;2.77;1.47;;;19.10;99.90;;;;;;5026264;28;20456;-85
2021/07/15 01:53:21;;;;;;;10.90;2.27;;;19.10;99.90;;;;;;5041113;28;20435;-84
2021/07/15 01:55:50;;;;;;;3.67;1.77;;;19.20;99.90;;;;;;5034151;28;20475;-85
2021/07/15 01:58:18;;;;;;;3.40;1.43;;;19.20;99.90;;;;;;5032774;28;20468;-83
2021/07/15 02:00:46;;;;;;;2.20;2.00;;;19.30;99.90;;;;;;5036913;28;20454;-85
2021/07/15 02:03:15;;;;;;;2.07;1.40;;;19.30;99.90;;;;;;5044996;28;20454;-83
2021/07/15 02:05:44;;;;;;;6.70;1.87;;;19.40;99.90;;;;;;5052770;28;20537;-83
2021/07/15 02:08:12;;;;;;;2.10;1.77;;;19.40;99.90;;;;;;5050262;28;20454;-83
2021/07/15 02:10:41;;;;;;;2.37;2.00;;;19.50;99.90;;;;;;5054924;28;20435;-83
2021/07/15 02:13:09;;;;;;;4.03;1.73;;;19.40;99.90;;;;;;5051651;28;20488;-83
2021/07/15 02:15:38;;;;;;;4.47;2.03;;;19.40;99.90;;;;;;5043345;28;20474;-83
2021/07/15 02:18:09;;;;;;;1.93;1.50;;;19.30;99.90;;;;;;5037568;28;20445;-84
2021/07/15 02:20:38;;;;;;;2.30;2.10;;;19.30;99.90;;;;;;5033191;28;20444;-84
2021/07/15 02:23:07;;;;;;;3.20;2.60;;;19.20;99.90;;;;;;5035866;28;20443;-84
2021/07/15 02:25:37;;;;;;;6.20;2.63;;;19.10;99.90;;;;;;5032855;28;20499;-85
2021/07/15 02:28:06;;;;;;;3.93;1.97;;;19.10;99.90;;;;;;5031441;28;20944;-84
2021/07/15 02:30:33;;;;;;;3.57;2.60;;;19.20;99.90;;;;;;5031083;28;20423;-84
2021/07/15 02:33:04;;;;;;;2.93;2.60;;;19.20;99.90;;;;;;5034703;28;20461;-84
2021/07/15 02:35:36;;;;;;;4.27;2.50;;;19.30;99.90;;;;;;5034399;28;20588;-85
2021/07/15 02:38:07;;;;;;;3.70;2.90;;;19.30;99.90;;;;;;5029989;28;20456;-85
2021/07/15 02:40:35;;;;;;;5.30;2.93;;;19.20;99.90;;;;;;5036950;28;20450;-84
2021/07/15 02:43:02;;;;;;;4.13;3.20;;;19.20;99.90;;;;;;5028589;28;20455;-84
2021/07/15 02:45:29;;;;;;;3.43;2.90;;;19.20;99.90;;;;;;5027530;28;20487;-84
2021/07/15 02:47:56;;;;;;;3.67;2.57;;;19.10;99.90;;;;;;5026513;28;20437;-84
2021/07/15 02:50:26;;;;;;;4.03;2.40;;;19.20;99.90;;;;;;5023394;28;20935;-84
2021/07/15 02:52:55;;;;;;;4.00;3.40;;;19.20;99.90;;;;;;5021178;28;20447;-84
2021/07/15 02:55:26;;;;;;;9.13;3.37;;;19.20;99.90;;;;;;5017914;28;20814;-84
2021/07/15 02:58:00;;;;;;;7.53;3.30;;;19.20;99.90;;;;;;5022646;28;20448;-84
2021/07/15 03:00:28;;;;;;;6.20;3.37;;;19.20;99.90;;;;;;5022881;28;20488;-84
2021/07/15 03:03:02;;;;;;;6.33;2.83;;;19.20;99.90;;;;;;5026079;28;20824;-84
2021/07/15 03:05:35;;;;;;;5.20;3.60;;;19.20;99.90;;;;;;5037611;28;20556;-84
2021/07/15 03:08:07;;;;;;;5.10;3.60;;;19.20;99.90;;;;;;5042508;28;20428;-84
2021/07/15 03:10:37;;;;;;;8.07;3.37;;;19.10;99.90;;;;;;5048872;28;20478;-85
2021/07/15 03:13:08;;;;;;;8.63;4.93;;;19.00;99.90;;;;;;5028652;28;20450;-85
2021/07/15 03:15:37;;;;;;;10.03;3.80;;;19.00;99.90;;;;;;5032014;28;20442;-84
2021/07/15 03:18:06;;;;;;;7.83;4.23;;;19.00;99.90;;;;;;5029104;28;20432;-85
2021/07/15 03:20:35;;;;;;;7.93;3.30;;;19.00;99.90;;;;;;5019392;28;20451;-85
2021/07/15 03:23:06;;;;;;;12.20;4.07;;;18.90;99.90;;;;;;5029217;28;20450;-84
2021/07/15 03:25:36;;;;;;;7.30;4.10;;;18.90;99.90;;;;;;5025786;28;20528;-84
2021/07/15 03:28:09;;;;;;;12.43;4.20;;;18.80;99.90;;;;;;5029622;28;20443;-83
2021/07/15 03:30:37;;;;;;;4.77;3.93;;;18.70;99.90;;;;;;5016386;28;20443;-84
2021/07/15 03:33:06;;;;;;;8.60;4.27;;;18.70;99.90;;;;;;5025200;28;20459;-84
2021/07/15 03:35:33;;;;;;;7.20;4.10;;;18.70;99.90;;;;;;5019543;28;20586;-84
2021/07/15 03:38:02;;;;;;;7.47;3.70;;;18.60;99.90;;;;;;5023042;28;20515;-85
2021/07/15 03:40:31;;;;;;;11.57;4.03;;;18.70;99.90;;;;;;5022921;28;20445;-85
2021/07/15 03:43:00;;;;;;;11.57;5.10;;;18.70;99.90;;;;;;5022047;28;20455;-84
2021/07/15 03:45:27;;;;;;;10.10;4.13;;;18.70;99.90;;;;;;5032473;28;20459;-84
2021/07/15 03:47:56;;;;;;;13.83;4.90;;;18.60;99.90;;;;;;5026275;28;20876;-84
2021/07/15 03:50:24;;;;;;;21.37;5.13;;;18.70;99.90;;;;;;5029973;28;20440;-85
2021/07/15 03:52:53;;;;;;;8.73;3.67;;;18.70;99.90;;;;;;5023900;28;20459;-85
2021/07/15 03:55:24;;;;;;;7.70;3.33;;;18.80;99.90;;;;;;5034119;28;20473;-84
2021/07/15 03:57:52;;;;;;;4.03;3.27;;;18.80;99.90;;;;;;5031616;28;20818;-84
2021/07/15 04:00:23;;;;;;;11.47;4.53;;;18.90;99.90;;;;;;5034635;28;20458;-85
2021/07/15 04:02:54;;;;;;;6.40;3.43;;;19.00;99.90;;;;;;5032907;28;20503;-85
2021/07/15 04:05:23;;;;;;;11.07;4.00;;;19.00;99.90;;;;;;5029673;28;20472;-85
2021/07/15 04:07:52;;;;;;;7.33;3.70;;;19.00;99.90;;;;;;5030749;28;20474;-84
2021/07/15 04:10:19;;;;;;;5.53;3.17;;;19.10;99.90;;;;;;5038967;28;20457;-84
2021/07/15 04:12:48;;;;;;;4.80;3.90;;;19.10;99.90;;;;;;5033277;28;20458;-84
2021/07/15 04:15:19;;;;;;;9.03;4.23;;;19.20;99.90;;;;;;5034942;28;20479;-85
2021/07/15 04:17:51;;;;;;;10.20;3.27;;;19.20;99.90;;;;;;5026993;28;20800;-84
2021/07/15 04:20:20;;;;;;;10.30;4.30;;;19.30;99.90;;;;;;5027639;28;20453;-85
2021/07/15 04:22:50;;;;;;;12.80;4.07;;;19.40;99.90;;;;;;5033195;28;20434;-84
2021/07/15 04:25:19;;;;;;;8.60;3.20;;;19.40;99.90;;;;;;5026438;28;20987;-84
2021/07/15 04:27:50;;;;;;;10.80;4.67;;;19.40;99.90;;;;;;5029248;28;20613;-84
2021/07/15 04:30:18;;;;;;;8.60;3.30;;;19.40;99.90;;;;;;5025454;28;21094;-85
2021/07/15 04:32:51;;;;;;;8.80;3.30;;;19.50;99.90;;;;;;5025155;28;20448;-83
2021/07/15 04:35:19;;;;;;;8.87;3.73;;;19.50;99.90;;;;;;5030248;28;20459;-85
2021/07/15 04:37:48;;;;;;;5.70;3.90;;;19.60;99.90;;;;;;5015782;28;20917;-84
2021/07/15 04:40:21;;;;;;;11.03;4.37;;;19.60;99.90;;;;;;5032466;28;20459;-84
2021/07/15 04:42:51;;;;;;;12.43;3.33;;;19.70;99.90;;;;;;5021943;28;20527;-85
2021/07/15 04:45:23;;;;;;;29.13;5.10;;;19.70;99.90;;;;;;5030437;28;20459;-85
2021/07/15 04:47:52;;;;;;;7.50;3.60;;;19.80;99.90;;;;;;5033343;28;20503;-83
2021/07/15 04:50:23;;;;;;;7.13;3.40;;;19.70;99.90;;;;;;5024614;28;20936;-85
2021/07/15 04:52:56;;;;;;;11.67;3.60;;;19.80;99.90;;;;;;5038011;28;20466;-85
2021/07/15 04:55:24;;;;;;;13.30;4.57;;;19.90;99.90;;;;;;5029303;28;20467;-84
2021/07/15 04:57:52;;;;;;;7.60;3.90;;;19.90;99.90;;;;;;5039306;28;20454;-84
2021/07/15 05:00:20;;;;;;;21.77;5.60;;;19.90;99.90;;;;;;5027464;28;20470;-84
2021/07/15 05:02:55;;;;;;;7.43;3.97;;;19.90;99.90;;;;;;5034246;28;20447;-84
2021/07/15 05:05:22;;;;;;;7.00;4.47;;;20.00;99.90;;;;;;5030484;28;20467;-84
2021/07/15 05:07:49;;;;;;;4.90;3.60;;;20.00;99.90;;;;;;5033240;28;20583;-84
2021/07/15 05:10:16;;;;;;;7.10;3.87;;;19.90;99.90;;;;;;5035822;28;20458;-84
2021/07/15 05:12:43;;;;;;;5.60;4.17;;;20.00;99.90;;;;;;5030929;28;20443;-84
2021/07/15 05:15:12;;;;;;;9.70;4.30;;;20.00;99.90;;;;;;5034879;28;20472;-84
2021/07/15 05:17:40;;;;;;;6.13;3.87;;;20.00;99.90;;;;;;5026588;28;20444;-84
2021/07/15 05:20:10;;;;;;;16.97;5.30;;;20.00;99.90;;;;;;5029757;28;20535;-85
2021/07/15 05:22:38;;;;;;;6.40;3.40;;;20.00;99.90;;;;;;5024924;28;20456;-85
2021/07/15 05:25:06;;;;;;;8.43;4.30;;;20.10;99.90;;;;;;5027001;28;20483;-85
2021/07/15 05:27:33;;;;;;;6.53;4.07;;;20.30;99.90;;;;;;5030373;28;20476;-85
2021/07/15 05:30:00;;;;;;;7.87;3.83;;;20.30;99.90;;;;;;5024166;28;20470;-86
2021/07/15 05:32:27;;;;;;;5.80;3.50;;;20.30;99.90;;;;;;5030473;28;20490;-85
2021/07/15 05:34:55;;;;;;;4.97;2.73;;;20.30;99.90;;;;;;5032651;28;20497;-86
2021/07/15 05:37:24;;;;;;;13.20;4.40;;;20.50;99.90;;;;;;5024385;28;20903;-85
2021/07/15 05:39:51;;;;;;;9.30;3.20;;;20.70;99.90;;;;;;5037760;28;20439;-86
2021/07/15 05:42:18;;;;;;;8.70;4.23;;;20.70;99.90;;;;;;5032245;28;20458;-84
2021/07/15 05:44:45;;;;;;;7.20;3.80;;;20.80;99.90;;;;;;5036665;28;20468;-86
2021/07/15 05:47:13;;;;;;;7.93;4.10;;;20.80;99.90;;;;;;5032076;28;20495;-84
2021/07/15 05:49:40;;;;;;;12.43;4.50;;;21.00;99.90;;;;;;5033781;28;20545;-85
2021/07/15 05:52:09;;;;;;;7.17;4.23;;;21.10;99.90;;;;;;5021369;28;20447;-85
2021/07/15 05:54:37;;;;;;;10.00;7.20;;;21.10;99.90;;;;;;5033476;28;20478;-86
2021/07/15 05:57:05;;;;;;;11.33;8.70;;;21.40;99.90;;;;;;5038224;28;20493;-83
2021/07/15 05:59:33;;;;;;;8.10;6.10;;;21.50;99.90;;;;;;5042339;28;20549;-84
2021/07/15 06:02:00;;;;;;;10.60;5.23;;;21.60;99.90;;;;;;5042106;28;20524;-84
2021/07/15 06:04:28;;;;;;;8.83;6.00;;;21.60;99.90;;;;;;5051282;28;20453;-84
2021/07/15 06:06:55;;;;;;;9.73;4.23;;;21.60;99.90;;;;;;5040729;28;20497;-84
2021/07/15 06:09:22;;;;;;;18.17;8.23;;;21.60;99.90;;;;;;5040340;28;20448;-85
2021/07/15 06:11:50;;;;;;;18.57;9.60;;;21.60;99.90;;;;;;5045382;28;20434;-85
2021/07/15 06:14:17;;;;;;;22.77;12.30;;;21.70;99.90;;;;;;5041079;28;20966;-85
2021/07/15 06:16:44;;;;;;;14.83;3.97;;;21.80;99.90;;;;;;5035219;28;20449;-85
2021/07/15 06:19:12;;;;;;;14.63;7.57;;;21.90;99.90;;;;;;5048613;28;20506;-84
2021/07/15 06:21:39;;;;;;;19.87;12.17;;;22.00;99.90;;;;;;5043891;28;20444;-85
2021/07/15 06:24:06;;;;;;;10.57;7.10;;;22.10;99.90;;;;;;5021691;28;20466;-86
2021/07/15 06:26:33;;;;;;;17.03;8.23;;;22.00;99.90;;;;;;5041394;28;20497;-86
2021/07/15 06:29:24;;;;;;;14.20;9.57;;;22.20;99.90;;;;;;5041927;28;20458;-85
2021/07/15 06:31:51;;;;;;;21.00;16.10;;;22.20;99.90;;;;;;5012110;28;20448;-86
2021/07/15 06:34:18;;;;;;;12.87;7.53;;;22.20;99.90;;;;;;5018308;28;20999;-86
2021/07/15 06:36:48;;;;;;;10.57;7.03;;;22.10;99.90;;;;;;5018577;28;20436;-86
2021/07/15 06:39:15;;;;;;;12.93;6.17;;;22.20;99.90;;;;;;5021388;28;20995;-86
2021/07/15 06:41:42;;;;;;;14.93;4.90;;;22.30;99.90;;;;;;5031142;28;20456;-86
2021/07/15 06:44:11;;;;;;;10.33;5.77;;;22.30;99.90;;;;;;5019552;28;20786;-86
2021/07/15 06:46:40;;;;;;;14.97;6.20;;;22.40;99.90;;;;;;5020514;28;20490;-86
2021/07/15 06:49:07;;;;;;;12.27;5.10;;;22.50;99.90;;;;;;5028131;28;20538;-86
2021/07/15 06:51:35;;;;;;;14.30;5.73;;;22.80;99.90;;;;;;5033918;28;20947;-86
2021/07/15 06:54:02;;;;;;;10.33;5.43;;;23.00;99.90;;;;;;5029444;28;20471;-85
2021/07/15 06:56:29;;;;;;;13.03;5.70;;;23.40;99.90;;;;;;5029523;28;20439;-86
2021/07/15 06:58:56;;;;;;;19.23;7.80;;;23.80;99.90;;;;;;5019636;28;20450;-86
2021/07/15 07:01:23;;;;;;;15.03;8.00;;;24.20;99.90;;;;;;5013890;28;20455;-86
2021/07/15 07:03:52;;;;;;;14.53;8.90;;;25.00;99.90;;;;;;5034756;28;20446;-86
2021/07/15 07:06:19;;;;;;;23.60;6.80;;;25.70;99.90;;;;;;5041953;28;20459;-84
2021/07/15 07:08:46;;;;;;;15.80;9.50;;;25.90;99.90;;;;;;5044956;28;20476;-86
2021/07/15 07:11:13;;;;;;;17.00;9.73;;;26.40;99.90;;;;;;5039811;28;20439;-84
2021/07/15 07:13:40;;;;;;;21.23;9.03;;;26.80;99.90;;;;;;5042073;28;20470;-85
2021/07/15 07:16:07;;;;;;;18.57;8.87;;;27.30;99.90;;;;;;5049427;28;20455;-85
2021/07/15 07:18:34;;;;;;;16.87;8.83;;;27.60;99.90;;;;;;5048090;28;20477;-85
2021/07/15 07:21:02;;;;;;;23.13;9.07;;;28.20;99.90;;;;;;5056037;28;20507;-84
2021/07/15 07:23:30;;;;;;;19.37;8.17;;;29.20;99.50;;;;;;5051458;28;20467;-84
2021/07/15 07:25:57;;;;;;;22.50;11.30;;;30.30;96.50;;;;;;5045988;28;20471;-84
2021/07/15 07:28:26;;;;;;;14.73;8.87;;;30.80;94.60;;;;;;5037176;28;20530;-85
2021/07/15 07:30:53;;;;;;;16.63;9.47;;;30.90;94.30;;;;;;5050897;28;20501;-84
2021/07/15 07:33:20;;;;;;;17.47;10.33;;;31.20;93.80;;;;;;5048456;28;20550;-84
2021/07/15 07:35:47;;;;;;;23.37;10.00;;;31.60;93.00;;;;;;5051552;28;20465;-84
2021/07/15 07:38:16;;;;;;;22.43;10.77;;;31.90;91.50;;;;;;5045451;28;20447;-84
2021/07/15 07:40:43;;;;;;;23.50;11.13;;;31.30;91.90;;;;;;5053167;28;20502;-82
2021/07/15 07:43:10;;;;;;;15.63;9.93;;;30.60;93.30;;;;;;5036628;28;20439;-84
2021/07/15 07:45:37;;;;;;;17.90;11.50;;;30.90;92.60;;;;;;5040684;28;20488;-83
2021/07/15 07:48:05;;;;;;;16.43;10.73;;;30.80;93.00;;;;;;5054146;28;20557;-84
2021/07/15 07:50:32;;;;;;;19.40;10.97;;;30.00;93.60;;;;;;5049146;28;20474;-85
2021/07/15 07:52:59;;;;;;;19.97;9.87;;;29.70;94.70;;;;;;5045194;28;20432;-84
2021/07/15 07:55:28;;;;;;;15.07;10.00;;;30.20;94.70;;;;;;5043092;28;20463;-86
2021/07/15 07:57:55;;;;;;;13.90;8.00;;;31.20;92.90;;;;;;5042039;28;20538;-86
2021/07/15 08:00:22;;;;;;;13.43;8.60;;;31.00;92.10;;;;;;5029623;28;20446;-87
2021/07/15 08:02:49;;;;;;;12.20;8.17;;;31.70;91.90;;;;;;5043812;28;20440;-85
2021/07/15 08:05:21;;;;;;;13.53;8.13;;;31.40;91.40;;;;;;5032755;28;20470;-85
2021/07/15 08:07:49;;;;;;;12.70;9.00;;;30.00;92.50;;;;;;5024279;28;20486;-85
2021/07/15 08:10:17;;;;;;;10.67;7.90;;;28.90;95.10;;;;;;5027920;28;20456;-84
2021/07/15 08:12:46;;;;;;;10.37;7.43;;;28.20;96.80;;;;;;5035091;28;20447;-84
2021/07/15 08:15:14;;;;;;;10.03;7.93;;;27.90;97.40;;;;;;5035659;28;21116;-86
2021/07/15 08:17:42;;;;;;;16.93;7.87;;;27.70;98.00;;;;;;5037361;28;20449;-86
2021/07/15 08:20:11;;;;;;;11.53;8.80;;;27.50;98.90;;;;;;5049569;28;20452;-85
2021/07/15 08:22:39;;;;;;;11.57;7.67;;;27.00;99.90;;;;;;5037023;28;20469;-86
2021/07/15 08:25:07;;;;;;;21.03;8.53;;;26.40;99.90;;;;;;5032081;28;20511;-86
2021/07/15 08:27:35;;;;;;;13.70;7.20;;;25.90;99.90;;;;;;5037442;28;20538;-85
2021/07/15 08:30:07;;;;;;;11.17;6.30;;;25.60;99.90;;;;;;5028471;28;20440;-85
2021/07/15 08:32:34;;;;;;;12.00;6.90;;;25.30;99.90;;;;;;5032241;28;20507;-85
2021/07/15 08:35:01;;;;;;;14.90;8.00;;;25.10;99.90;;;;;;5034142;28;20467;-86
2021/07/15 08:37:29;;;;;;;8.07;5.77;;;25.10;99.90;;;;;;5032528;28;20896;-85
2021/07/15 08:39:56;;;;;;;7.70;6.27;;;25.00;99.90;;;;;;5027423;28;20462;-85
2021/07/15 08:42:23;;;;;;;7.87;6.97;;;25.00;99.90;;;;;;5020447;28;20451;-86
2021/07/15 08:44:50;;;;;;;12.70;7.20;;;25.30;99.90;;;;;;5034021;28;20465;-87
2021/07/15 08:47:20;;;;;;;9.10;6.40;;;25.60;99.90;;;;;;5021612;28;20901;-85
2021/07/15 08:49:47;;;;;;;8.63;6.10;;;26.10;99.90;;;;;;5037305;28;20447;-85
2021/07/15 08:52:15;;;;;;;11.30;6.23;;;27.10;99.90;;;;;;5030249;28;20551;-86
2021/07/15 08:57:31;;;;;;;12.60;10.37;;;28.00;99.90;;;;;;5006055;28;20450;-85
2021/07/15 08:59:58;;;;;;;12.27;7.17;;;28.20;99.20;;;;;;5036271;28;20467;-85
2021/07/15 09:02:27;;;;;;;11.97;8.50;;;28.60;98.20;;;;;;5031155;28;20531;-85
2021/07/15 09:04:55;;;;;;;10.40;8.27;;;29.50;96.90;;;;;;5033197;28;20546;-85
2021/07/15 09:07:24;;;;;;;8.47;6.30;;;29.60;95.40;;;;;;5027247;28;20494;-86
2021/07/15 09:09:51;;;;;;;14.47;11.90;;;29.20;95.80;;;;;;5032730;28;20463;-85
2021/07/15 09:12:18;;;;;;;9.80;6.10;;;28.90;96.20;;;;;;5033606;28;20500;-85
2021/07/15 09:14:47;;;;;;;8.80;7.27;;;28.80;96.20;;;;;;5028908;28;20451;-84
2021/07/15 09:17:16;;;;;;;7.50;5.33;;;28.80;96.30;;;;;;5033950;28;20448;-85
2021/07/15 09:19:44;;;;;;;6.17;5.40;;;28.60;96.60;;;;;;5032699;28;20443;-85
2021/07/15 09:22:13;;;;;;;9.60;7.47;;;28.70;97.30;;;;;;5033250;28;20450;-84
2021/07/15 09:24:44;;;;;;;7.73;6.00;;;28.70;96.60;;;;;;5031478;28;20463;-85
2021/07/15 09:27:13;;;;;;;8.03;6.30;;;28.90;97.30;;;;;;5038113;28;20508;-85
2021/07/15 09:29:40;;;;;;;4.97;4.10;;;29.40;96.10;;;;;;5029899;28;20498;-84
2021/07/15 09:32:08;;;;;;;7.80;4.70;;;29.60;95.30;;;;;;5033567;28;20940;-85
2021/07/15 09:34:37;;;;;;;12.93;5.40;;;30.20;94.60;;;;;;5029772;28;20478;-85
2021/07/15 09:37:14;;;;;;;10.50;8.33;;;31.10;93.40;;;;;;5027899;28;20452;-83
2021/07/15 09:39:46;;;;;;;13.10;6.77;;;31.20;91.70;;;;;;5035622;28;20447;-86
2021/07/15 09:42:18;;;;;;;8.20;5.70;;;30.70;92.50;;;;;;5023143;28;20547;-84
2021/07/15 09:44:46;;;;;;;8.20;6.30;;;31.00;93.00;;;;;;5032339;28;20474;-84
2021/07/15 09:47:36;;;;;;;8.50;5.50;;;31.80;92.20;;;;;;5033942;28;20441;-83
2021/07/15 09:50:23;;;;;;;10.83;7.43;;;32.20;90.80;;;;;;5025076;28;20443;-84
2021/07/15 09:52:51;;;;;;;11.60;5.30;;;32.20;90.80;;;;;;5028904;28;20451;-83
2021/07/15 09:55:20;;;;;;;9.03;6.87;;;31.70;91.10;;;;;;5022530;28;20467;-85
2021/07/15 09:57:48;;;;;;;9.30;7.13;;;31.40;91.60;;;;;;5022648;28;20451;-85
2021/07/15 10:00:15;;;;;;;12.50;6.60;;;30.60;92.00;;;;;;5018811;28;20531;-85
2021/07/15 10:02:42;;;;;;;9.90;8.00;;;29.90;93.10;;;;;;5027100;28;20479;-85
2021/07/15 10:05:14;;;;;;;11.37;7.90;;;29.60;94.30;;;;;;5024710;28;21039;-85
2021/07/15 10:07:41;;;;;;;9.60;8.53;;;29.40;94.40;;;;;;5023086;28;20640;-84
2021/07/15 10:10:21;;;;;;;11.10;10.00;;;29.00;94.90;;;;;;5029235;28;20443;-85
2021/07/15 10:12:48;;;;;;;15.30;12.67;;;28.80;96.10;;;;;;5029633;28;20444;-83
2021/07/15 10:15:16;;;;;;;11.23;7.80;;;28.60;96.10;;;;;;5027894;28;20480;-85
2021/07/15 10:17:46;;;;;;;11.70;9.10;;;28.70;96.40;;;;;;5036413;28;20457;-85
2021/07/15 10:20:14;;;;;;;12.47;6.90;;;28.80;96.70;;;;;;5029566;28;20448;-85
2021/07/15 10:22:42;;;;;;;10.73;7.80;;;28.90;96.40;;;;;;5027248;28;20443;-85
2021/07/15 10:25:11;;;;;;;13.17;8.90;;;28.80;95.90;;;;;;5028986;28;20835;-85
2021/07/15 10:27:40;;;;;;;24.40;12.90;;;28.80;96.10;;;;;;5029423;28;20447;-85
2021/07/15 10:30:09;;;;;;;12.47;8.07;;;28.90;96.90;;;;;;5025361;28;20898;-85
2021/07/15 10:32:39;;;;;;;13.17;9.30;;;29.70;95.60;;;;;;5040249;28;20453;-84
2021/07/15 10:35:09;;;;;;;10.37;8.70;;;30.50;93.90;;;;;;5036182;28;20472;-85
2021/07/15 10:37:39;;;;;;;9.00;7.80;;;30.70;93.10;;;;;;5034987;28;20439;-86
2021/07/15 10:40:10;;;;;;;14.17;8.83;;;30.60;93.30;;;;;;5029060;28;20448;-85
2021/07/15 10:42:39;;;;;;;9.97;8.43;;;29.90;93.00;;;;;;5036325;28;20455;-85
2021/07/15 10:45:08;;;;;;;12.27;9.20;;;29.70;94.30;;;;;;5032039;28;20949;-86
2021/07/15 10:47:37;;;;;;;17.13;14.90;;;29.50;94.80;;;;;;5039239;28;20447;-83
2021/07/15 10:50:05;;;;;;;12.93;11.50;;;29.40;95.60;;;;;;5034795;28;20448;-85
2021/07/15 10:52:34;;;;;;;15.17;11.30;;;29.30;95.80;;;;;;5030328;28;20454;-85
2021/07/15 10:55:03;;;;;;;14.03;10.60;;;29.40;95.70;;;;;;5038755;28;20497;-85
2021/07/15 10:57:30;;;;;;;11.90;9.73;;;29.60;95.80;;;;;;5029716;28;20526;-84
2021/07/15 11:00:21;;;;;;;13.93;10.13;;;29.80;94.80;;;;;;5033027;28;20451;-83
2021/07/15 11:03:07;;;;;;;13.83;10.33;;;29.60;95.00;;;;;;5025202;28;20484;-85
2021/07/15 11:05:34;;;;;;;18.30;12.90;;;29.60;95.30;;;;;;5024160;28;20523;-86
2021/07/15 11:08:01;;;;;;;16.03;11.60;;;29.90;95.50;;;;;;5024139;28;20860;-86
2021/07/15 11:10:35;;;;;;;16.87;10.67;;;30.40;94.90;;;;;;5045778;28;20447;-84
2021/07/15 11:13:04;;;;;;;14.40;11.20;;;30.70;94.20;;;;;;5037961;28;20440;-84
2021/07/15 11:15:52;;;;;;;20.30;10.93;;;30.90;93.50;;;;;;5038210;28;20478;-84
2021/07/15 11:18:56;;;;;;;15.77;12.00;;;30.50;93.70;;;;;;5035410;28;20447;-84
2021/07/15 11:21:32;;;;;;;20.60;12.97;;;30.50;94.20;;;;;;5023593;28;20467;-84
2021/07/15 11:24:32;;;;;;;16.37;13.53;;;30.70;93.90;;;;;;5039529;28;20511;-84
2021/07/15 11:26:59;;;;;;;20.40;13.93;;;30.50;93.80;;;;;;5035250;28;20444;-84
2021/07/15 11:29:51;;;;;;;15.60;13.30;;;30.30;93.90;;;;;;5043112;28;20550;-83
2021/07/15 11:32:27;;;;;;;22.00;13.80;;;30.10;94.40;;;;;;5032665;28;20428;-85
2021/07/15 11:34:55;;;;;;;23.87;17.80;;;30.00;94.80;;;;;;5034576;28;20444;-82
2021/07/15 11:37:39;;;;;;;21.43;16.43;;;30.20;94.80;;;;;;5038307;28;20478;-81
2021/07/15 11:40:23;;;;;;;18.30;15.50;;;30.00;93.80;;;;;;5044832;28;20472;-83
2021/07/15 11:42:50;;;;;;;24.40;16.93;;;29.80;95.00;;;;;;5033587;28;20474;-82
2021/07/15 11:45:17;;;;;;;15.63;13.87;;;29.70;95.10;;;;;;5041857;28;20460;-82
2021/07/15 11:47:51;;;;;;;20.67;18.50;;;29.70;94.90;;;;;;5038250;28;20476;-84
2021/07/15 11:50:31;;;;;;;16.47;12.90;;;29.90;95.20;;;;;;5037915;28;20423;-85
2021/07/15 11:53:18;;;;;;;14.37;12.17;;;30.00;94.10;;;;;;5032995;28;20458;-85
2021/07/15 11:55:46;;;;;;;15.97;14.27;;;30.10;94.70;;;;;;5027025;28;20494;-83
2021/07/15 11:58:46;;;;;;;17.07;13.50;;;30.30;94.00;;;;;;5039098;28;20454;-83
2021/07/15 12:01:17;;;;;;;17.10;15.30;;;30.30;94.10;;;;;;5027645;28;20460;-83
2021/07/15 12:04:01;;;;;;;17.20;13.90;;;30.30;94.20;;;;;;5035218;28;20458;-84
2021/07/15 12:06:29;;;;;;;20.03;15.47;;;30.30;94.50;;;;;;5017633;28;20444;-85
2021/07/15 12:09:02;;;;;;;17.63;15.90;;;30.10;94.50;;;;;;5031043;28;21009;-84
2021/07/15 12:11:30;;;;;;;17.00;15.20;;;30.00;95.00;;;;;;5030959;28;20468;-85
2021/07/15 12:13:57;;;;;;;17.43;15.60;;;30.20;94.50;;;;;;5021199;28;20505;-84
2021/07/15 12:16:25;;;;;;;18.17;14.67;;;30.00;94.70;;;;;;5028560;28;20439;-83
2021/07/15 12:18:52;;;;;;;21.23;17.87;;;29.90;95.10;;;;;;5023349;28;20472;-85
2021/07/15 12:21:22;;;;;;;19.57;17.70;;;30.10;95.00;;;;;;5042114;28;20435;-85
2021/07/15 12:23:50;;;;;;;19.13;17.30;;;30.30;94.70;;;;;;5029124;28;20443;-85
2021/07/15 12:26:19;;;;;;;21.33;16.23;;;30.30;93.80;;;;;;5032994;28;20474;-85
2021/07/15 12:28:47;;;;;;;16.77;14.93;;;30.20;94.40;;;;;;5035170;28;20558;-85
2021/07/15 12:31:16;;;;;;;14.00;12.60;;;30.30;94.30;;;;;;5028261;28;20461;-84
2021/07/15 12:33:45;;;;;;;15.17;13.67;;;30.30;93.20;;;;;;5028372;28;20482;-84
2021/07/15 12:36:14;;;;;;;17.77;15.47;;;30.00;93.80;;;;;;5032049;28;20526;-84
2021/07/15 12:38:43;;;;;;;18.93;16.97;;;29.70;94.90;;;;;;5032425;28;20432;-84
2021/07/15 12:41:14;;;;;;;20.87;17.17;;;29.70;95.50;;;;;;5029322;28;20511;-84
2021/07/15 12:43:51;;;;;;;21.40;18.80;;;29.80;95.40;;;;;;5021380;28;20479;-84
2021/07/15 12:46:21;;;;;;;22.97;20.50;;;29.80;95.00;;;;;;5028891;28;20455;-84
2021/07/15 12:48:50;;;;;;;19.40;17.40;;;29.70;95.30;;;;;;5031868;28;20487;-85
2021/07/15 12:51:18;;;;;;;25.90;23.00;;;29.30;96.00;;;;;;5023846;28;20451;-84
2021/07/15 12:53:56;;;;;;;24.13;21.50;;;29.00;96.60;;;;;;5030549;28;20454;-85
2021/07/15 12:56:25;;;;;;;26.60;22.80;;;28.70;96.90;;;;;;5036949;28;20439;-85
2021/07/15 12:59:04;;;;;;;22.30;19.77;;;28.90;97.10;;;;;;5024217;28;20463;-85
2021/07/15 13:01:32;;;;;;;20.53;18.53;;;29.10;96.70;;;;;;5030793;28;20934;-85
2021/07/15 13:04:03;;;;;;;23.53;20.70;;;29.20;96.10;;;;;;5024863;28;20462;-83
2021/07/15 13:06:31;;;;;;;23.33;20.77;;;29.30;96.20;;;;;;5028464;28;20460;-85
2021/07/15 13:09:07;;;;;;;18.90;17.10;;;29.10;96.00;;;;;;5031753;28;20486;-84